Time;durP1;ratioP1;P1;durP2;ratioP2;P2;SDS_P1;SDS_P2;PMS_P1;PMS_P2;Temp;Humidity;BMP_temperature;BMP_pressure;BME280_temperature;BME280_humidity;BME280_pressure;Samples;Min_cycle;Max_cycle;Signal;HPM_P1;HPM_P2
2023/09/12 00:02:17;;;;;;;22.15;13.60;;;;;;;20.60;70.34;100485.84;5070489;28;20143;-81
2023/09/12 00:04:44;;;;;;;20.90;13.40;;;;;;;20.57;70.75;100482.63;5069126;28;20138;-72
2023/09/12 00:07:12;;;;;;;28.60;14.07;;;;;;;20.53;71.41;100484.78;5050207;28;20079;-74
2023/09/12 00:09:39;;;;;;;18.98;12.43;;;;;;;20.51;71.05;100481.44;5069056;28;20078;-71
2023/09/12 00:12:06;;;;;;;27.42;14.60;;;;;;;20.50;71.45;100482.44;5075316;28;20068;-76
2023/09/12 00:14:34;;;;;;;19.48;13.18;;;;;;;20.48;71.50;100485.25;5064954;28;20047;-77
2023/09/12 00:17:01;;;;;;;18.25;12.90;;;;;;;20.47;72.10;100488.06;5084137;28;20433;-76
2023/09/12 00:19:28;;;;;;;19.13;12.65;;;;;;;20.45;72.22;100484.72;5057890;28;20083;-75
2023/09/12 00:21:55;;;;;;;21.85;12.68;;;;;;;20.44;72.11;100483.03;5051503;28;20460;-72
2023/09/12 00:24:23;;;;;;;23.90;14.68;;;;;;;20.42;72.62;100493.03;5083122;28;20128;-75
2023/09/12 00:26:50;;;;;;;24.70;13.48;;;;;;;20.38;72.83;100489.00;5074565;28;20083;-74
2023/09/12 00:29:17;;;;;;;21.02;13.25;;;;;;;20.36;73.12;100486.50;5059945;28;20106;-76
2023/09/12 00:31:45;;;;;;;19.35;12.98;;;;;;;20.35;72.99;100495.50;5071562;28;20083;-74
2023/09/12 00:34:17;;;;;;;24.67;13.00;;;;;;;20.35;72.79;100489.31;5084321;28;20441;-74
2023/09/12 00:36:44;;;;;;;17.60;13.25;;;;;;;20.33;73.58;100492.16;5076488;28;20143;-74
2023/09/12 00:39:11;;;;;;;21.15;13.52;;;;;;;20.31;73.79;100491.47;5054540;28;20048;-74
2023/09/12 00:41:39;;;;;;;22.35;13.02;;;;;;;20.31;73.83;100491.47;5076376;28;20093;-73
2023/09/12 00:44:06;;;;;;;20.50;12.70;;;;;;;20.30;74.56;100488.94;5069577;28;20093;-74
2023/09/12 00:46:34;;;;;;;18.35;13.77;;;;;;;20.29;74.49;100487.28;5087460;28;20052;-74
2023/09/12 00:49:03;;;;;;;16.80;13.18;;;;;;;20.27;74.24;100491.94;5066616;28;20095;-72
2023/09/12 00:51:31;;;;;;;18.63;13.85;;;;;;;20.28;74.89;100493.63;5066765;28;20103;-73
2023/09/12 00:53:58;;;;;;;22.65;12.32;;;;;;;20.27;74.98;100487.44;5067624;28;20060;-72
2023/09/12 00:56:26;;;;;;;21.63;14.20;;;;;;;20.27;75.27;100492.78;5051041;28;20056;-73
2023/09/12 00:58:53;;;;;;;15.00;12.15;;;;;;;20.24;74.62;100491.25;5065314;28;20043;-71
2023/09/12 01:01:21;;;;;;;26.90;12.15;;;;;;;20.22;76.01;100482.56;5054842;28;20109;-72
2023/09/12 01:03:49;;;;;;;24.83;13.07;;;;;;;20.20;75.39;100487.22;5069658;28;20083;-73
2023/09/12 01:06:19;;;;;;;21.33;12.75;;;;;;;20.20;75.01;100489.03;5066584;28;20094;-72
2023/09/12 01:08:47;;;;;;;17.63;12.52;;;;;;;20.20;75.19;100487.22;5048776;28;20052;-72
2023/09/12 01:11:14;;;;;;;22.20;11.95;;;;;;;20.17;75.14;100487.53;5050795;28;20474;-74
2023/09/12 01:13:41;;;;;;;25.08;13.00;;;;;;;20.13;76.26;100488.00;5050976;28;20167;-75
2023/09/12 01:16:09;;;;;;;21.00;13.18;;;;;;;20.08;76.51;100483.09;5053946;28;20052;-76
2023/09/12 01:18:36;;;;;;;27.15;13.35;;;;;;;20.06;76.38;100484.28;5067130;28;20633;-76
2023/09/12 01:21:10;;;;;;;21.25;12.88;;;;;;;20.04;76.73;100484.44;5089233;28;20548;-77
2023/09/12 01:24:27;;;;;;;18.35;12.75;;;;;;;20.02;76.92;100483.72;5048707;28;20044;-72
2023/09/12 01:27:21;;;;;;;17.17;13.45;;;;;;;19.98;77.54;100480.53;5059425;28;20147;-72
2023/09/12 01:29:51;;;;;;;31.92;13.77;;;;;;;19.98;76.94;100482.34;5061476;28;20070;-72
2023/09/12 01:32:19;;;;;;;20.20;12.80;;;;;;;19.98;77.00;100479.69;5034143;28;20113;-73
2023/09/12 01:34:47;;;;;;;19.63;13.15;;;;;;;19.97;76.27;100481.53;5048863;28;20054;-78
2023/09/12 01:37:14;;;;;;;19.63;11.93;;;;;;;19.98;76.27;100482.34;5054137;28;20060;-78
2023/09/12 01:39:42;;;;;;;22.67;12.95;;;;;;;19.98;75.72;100480.53;5030774;28;20067;-79
2023/09/12 01:42:14;;;;;;;35.63;13.40;;;;;;;19.97;76.36;100488.69;5067047;28;20495;-71
2023/09/12 01:44:45;;;;;;;20.90;13.02;;;;;;;19.97;76.08;100480.69;5030812;28;20138;-70
2023/09/12 01:47:14;;;;;;;17.67;12.32;;;;;;;19.95;75.80;100478.19;5064893;28;20143;-72
2023/09/12 01:49:46;;;;;;;14.93;11.40;;;;;;;19.95;75.83;100483.53;5030693;28;20051;-71
2023/09/12 01:52:14;;;;;;;19.88;12.63;;;;;;;19.94;75.67;100475.66;5078101;28;20500;-70
2023/09/12 01:54:42;;;;;;;20.95;14.20;;;;;;;19.95;75.14;100480.03;5064535;28;20056;-71
2023/09/12 01:57:10;;;;;;;20.63;12.88;;;;;;;19.93;76.26;100477.47;5029871;28;20063;-71
2023/09/12 01:59:38;;;;;;;14.32;11.98;;;;;;;19.93;75.92;100482.81;5049465;28;20032;-71
2023/09/12 02:02:05;;;;;;;17.83;13.45;;;;;;;19.91;75.65;100473.31;5051177;28;20109;-73
2023/09/12 02:04:32;;;;;;;15.35;12.07;;;;;;;19.91;75.47;100481.31;5069635;28;20139;-73
2023/09/12 02:06:59;;;;;;;23.85;13.32;;;;;;;19.91;75.32;100473.31;5054339;28;20081;-73
2023/09/12 02:09:27;;;;;;;20.27;12.13;;;;;;;19.86;76.09;100476.44;5067222;28;20097;-75
2023/09/12 02:11:54;;;;;;;17.00;12.20;;;;;;;19.83;76.52;100474.06;5056636;28;20453;-75
2023/09/12 02:14:22;;;;;;;17.20;12.32;;;;;;;19.80;76.68;100468.19;5067474;28;20090;-75
2023/09/12 02:16:49;;;;;;;21.13;12.52;;;;;;;19.75;76.71;100465.13;5072155;28;20095;-78
2023/09/12 02:19:17;;;;;;;17.98;12.10;;;;;;;19.71;76.63;100470.78;5055565;28;20063;-80
2023/09/12 02:21:44;;;;;;;17.75;12.07;;;;;;;19.71;76.01;100462.75;5054385;28;20066;-78
2023/09/12 02:24:11;;;;;;;14.90;10.73;;;;;;;19.72;76.36;100456.44;5070006;28;20063;-78
2023/09/12 02:26:39;;;;;;;22.00;12.68;;;;;;;19.70;76.63;100466.44;5087162;28;20048;-78
2023/09/12 02:29:07;;;;;;;19.88;12.02;;;;;;;19.67;76.74;100457.88;5065756;28;20458;-80
2023/09/12 02:31:34;;;;;;;15.25;11.35;;;;;;;19.66;76.11;100459.72;5068000;28;20044;-78
2023/09/12 02:34:02;;;;;;;17.88;12.38;;;;;;;19.65;76.53;100460.72;5086896;28;20048;-71
2023/09/12 02:36:29;;;;;;;17.50;12.30;;;;;;;19.64;76.71;100458.22;5069370;28;20105;-73
2023/09/12 02:38:56;;;;;;;14.98;12.20;;;;;;;19.60;76.71;100463.00;5070179;28;20108;-72
2023/09/12 02:41:24;;;;;;;14.77;11.35;;;;;;;19.58;76.89;100461.44;5068091;28;20052;-75
2023/09/12 02:43:51;;;;;;;21.73;13.65;;;;;;;19.56;77.41;100458.09;5070025;28;20101;-73
2023/09/12 02:46:18;;;;;;;17.05;12.25;;;;;;;19.53;77.74;100455.72;5053641;28;20046;-73
2023/09/12 02:48:46;;;;;;;18.05;12.40;;;;;;;19.48;78.04;100457.00;5071932;28;20079;-73
2023/09/12 02:51:14;;;;;;;13.68;11.98;;;;;;;19.47;78.43;100451.84;5051694;28;20079;-73
2023/09/12 02:53:41;;;;;;;18.17;13.85;;;;;;;19.43;79.54;100456.63;5066556;28;20407;-72
2023/09/12 02:56:08;;;;;;;14.85;11.90;;;;;;;19.38;79.31;100455.41;5069643;28;20093;-73
2023/09/12 02:58:36;;;;;;;17.55;13.13;;;;;;;19.36;79.78;100457.38;5047237;28;20247;-75
2023/09/12 03:01:06;;;;;;;19.30;13.35;;;;;;;19.34;80.12;100456.72;5049639;28;20652;-73
2023/09/12 03:03:34;;;;;;;17.48;11.82;;;;;;;19.31;79.43;100457.00;5054575;28;20139;-75
2023/09/12 03:06:03;;;;;;;22.50;12.40;;;;;;;19.30;79.96;100439.31;5069672;28;20089;-76
2023/09/12 03:08:31;;;;;;;18.92;13.20;;;;;;;19.29;80.29;100442.97;5054872;28;20467;-76
2023/09/12 03:10:58;;;;;;;16.63;11.90;;;;;;;19.27;80.37;100445.78;5063565;28;20116;-71
2023/09/12 03:13:25;;;;;;;16.52;11.73;;;;;;;19.27;80.15;100447.59;5063319;28;20399;-72
2023/09/12 03:15:53;;;;;;;15.65;11.98;;;;;;;19.24;80.95;100440.75;5048168;28;20147;-74
2023/09/12 03:18:20;;;;;;;17.17;12.23;;;;;;;19.20;81.20;100444.72;5059867;28;20435;-77
2023/09/12 03:20:47;;;;;;;18.30;12.50;;;;;;;19.18;81.29;100447.56;5066694;28;20094;-75
2023/09/12 03:23:15;;;;;;;16.63;13.05;;;;;;;19.15;81.42;100442.50;5068555;28;20075;-75
2023/09/12 03:25:42;;;;;;;21.38;13.60;;;;;;;19.11;81.24;100440.28;5048860;28;20147;-75
2023/09/12 03:28:09;;;;;;;19.25;12.82;;;;;;;19.07;81.54;100439.75;5049792;28;20127;-74
2023/09/12 03:30:37;;;;;;;14.63;12.85;;;;;;;19.05;81.83;100433.72;5044390;28;20645;-74
2023/09/12 03:33:05;;;;;;;16.80;13.75;;;;;;;19.05;81.76;100439.06;5042853;28;20045;-75
2023/09/12 03:35:33;;;;;;;20.73;13.23;;;;;;;19.04;81.73;100439.19;5044043;28;20056;-75
2023/09/12 03:38:03;;;;;;;19.30;12.32;;;;;;;19.02;81.78;100439.34;5068651;28;20071;-76
2023/09/12 03:40:31;;;;;;;16.33;13.10;;;;;;;19.02;82.18;100447.34;5067490;28;20097;-81
2023/09/12 03:42:58;;;;;;;16.35;12.95;;;;;;;18.98;81.70;100440.63;5086300;28;20040;-76
2023/09/12 03:45:26;;;;;;;16.42;12.65;;;;;;;18.99;82.02;100447.63;5050543;28;20544;-75
2023/09/12 03:47:54;;;;;;;21.33;13.98;;;;;;;18.98;82.25;100446.81;5083922;28;20051;-77
2023/09/12 03:50:21;;;;;;;23.65;13.70;;;;;;;18.96;82.09;100445.28;5071070;28;20056;-76
2023/09/12 03:52:48;;;;;;;20.08;12.73;;;;;;;18.95;82.03;100452.44;5086167;28;20135;-75
2023/09/12 03:55:16;;;;;;;19.88;12.40;;;;;;;18.95;82.55;100452.44;5068880;28;20067;-76
2023/09/12 03:57:43;;;;;;;16.45;13.02;;;;;;;18.93;82.45;100454.41;5052101;28;20082;-76
2023/09/12 04:00:12;;;;;;;21.77;12.25;;;;;;;18.91;82.41;100453.75;5055421;28;20171;-76
2023/09/12 04:02:42;;;;;;;17.52;12.18;;;;;;;18.89;82.20;100462.88;5071764;28;20052;-78
2023/09/12 04:05:09;;;;;;;22.25;12.77;;;;;;;18.86;82.16;100463.97;5056575;28;20089;-76
2023/09/12 04:07:37;;;;;;;20.88;13.70;;;;;;;18.84;83.18;100462.47;5054233;28;20101;-75
2023/09/12 04:10:04;;;;;;;21.40;14.10;;;;;;;18.79;83.21;100467.41;5070508;28;20602;-73
2023/09/12 04:12:31;;;;;;;17.85;13.57;;;;;;;18.77;83.59;100467.53;5038405;28;20040;-75
2023/09/12 04:14:59;;;;;;;18.65;12.93;;;;;;;18.77;83.42;100469.38;5055842;28;20106;-76
2023/09/12 04:17:26;;;;;;;18.60;13.32;;;;;;;18.77;83.87;100453.38;5053041;28;20155;-76
2023/09/12 04:19:54;;;;;;;21.55;14.25;;;;;;;18.77;83.51;100464.03;5068470;28;20060;-78
2023/09/12 04:22:21;;;;;;;17.35;12.98;;;;;;;18.79;83.90;100456.75;5064725;28;20052;-76
2023/09/12 04:24:50;;;;;;;15.30;11.95;;;;;;;18.78;83.55;100460.38;5065806;28;20040;-77
2023/09/12 04:27:17;;;;;;;21.25;12.82;;;;;;;18.79;83.73;100462.06;5053426;28;20071;-76
2023/09/12 04:29:44;;;;;;;19.60;12.70;;;;;;;18.79;83.73;100464.75;5052015;28;20125;-70
2023/09/12 04:32:12;;;;;;;19.50;12.25;;;;;;;18.78;83.91;100455.91;5048812;28;20429;-71
2023/09/12 04:34:42;;;;;;;18.42;11.68;;;;;;;18.85;84.32;100464.16;5065375;28;20044;-70
2023/09/12 04:37:10;;;;;;;18.70;11.38;;;;;;;18.93;84.55;100458.91;5052154;28;20097;-70
2023/09/12 04:39:37;;;;;;;15.23;11.93;;;;;;;18.98;84.54;100462.81;5049382;28;20059;-69
2023/09/12 04:42:04;;;;;;;16.65;11.82;;;;;;;19.06;84.07;100463.91;5051752;28;20052;-70
2023/09/12 04:44:36;;;;;;;17.58;12.18;;;;;;;19.12;83.93;100465.97;5053056;28;20779;-70
2023/09/12 04:47:03;;;;;;;15.63;11.63;;;;;;;19.17;83.67;100467.19;5051934;28;20055;-70
2023/09/12 04:49:30;;;;;;;18.08;13.02;;;;;;;19.20;83.84;100458.91;5054230;28;20089;-70
2023/09/12 04:51:58;;;;;;;16.10;11.93;;;;;;;19.25;83.50;100454.94;5034241;28;20520;-69
2023/09/12 04:54:27;;;;;;;15.18;12.10;;;;;;;19.28;83.53;100452.81;5072420;28;20047;-70
2023/09/12 04:56:55;;;;;;;17.80;12.52;;;;;;;19.32;83.23;100456.88;5063923;28;20572;-70
2023/09/12 04:59:22;;;;;;;16.70;12.45;;;;;;;19.36;83.02;100465.38;5055492;28;20063;-70
2023/09/12 05:01:51;;;;;;;14.77;12.45;;;;;;;19.35;82.93;100463.72;5067077;28;20558;-63
2023/09/12 05:04:18;;;;;;;18.65;12.55;;;;;;;19.36;82.91;100466.25;5052426;28;20084;-69
2023/09/12 05:06:46;;;;;;;17.48;12.75;;;;;;;19.40;82.45;100472.09;5070332;28;20510;-68
2023/09/12 05:09:13;;;;;;;15.88;11.73;;;;;;;19.46;82.09;100476.88;5046832;28;20064;-71
2023/09/12 05:11:41;;;;;;;16.60;12.13;;;;;;;19.55;81.99;100475.94;5068029;28;20052;-70
2023/09/12 05:14:08;;;;;;;16.15;11.90;;;;;;;19.61;81.51;100479.88;5036996;28;20093;-70
2023/09/12 05:16:35;;;;;;;18.60;12.95;;;;;;;19.64;80.82;100469.72;5067597;28;20487;-84
2023/09/12 05:19:03;;;;;;;15.80;12.07;;;;;;;19.70;80.21;100476.28;5088200;28;20028;-73
2023/09/12 05:21:31;;;;;;;15.90;13.00;;;;;;;19.67;80.47;100473.91;5048884;28;20052;-73
2023/09/12 05:23:58;;;;;;;25.55;13.50;;;;;;;19.73;80.03;100471.47;5070777;28;20052;-73
2023/09/12 05:26:25;;;;;;;17.65;13.57;;;;;;;19.81;79.41;100475.19;5067819;28;20089;-73
2023/09/12 05:28:53;;;;;;;18.25;12.90;;;;;;;19.85;78.84;100477.41;5054042;28;20044;-73
2023/09/12 05:31:20;;;;;;;20.05;13.13;;;;;;;19.91;78.58;100475.97;5066940;28;20560;-73
2023/09/12 05:33:48;;;;;;;17.80;13.95;;;;;;;19.92;78.44;100481.16;5071367;28;20129;-72
2023/09/12 05:36:16;;;;;;;26.10;15.25;;;;;;;19.96;78.07;100485.19;5083037;28;20117;-73
2023/09/12 05:38:44;;;;;;;29.80;16.23;;;;;;;19.98;77.77;100482.34;5071765;28;20048;-73
2023/09/12 05:41:11;;;;;;;18.25;13.57;;;;;;;20.03;77.43;100484.56;5065607;28;20561;-73
2023/09/12 05:43:39;;;;;;;19.33;13.77;;;;;;;20.09;77.06;100484.81;5067415;28;20501;-73
2023/09/12 05:46:06;;;;;;;14.60;12.95;;;;;;;20.14;76.38;100487.84;5067959;28;20044;-73
2023/09/12 05:48:33;;;;;;;19.05;13.25;;;;;;;20.21;75.39;100494.22;5069509;28;20052;-72
2023/09/12 05:51:01;;;;;;;18.85;12.60;;;;;;;20.26;75.39;100492.91;5089986;28;20736;-74
2023/09/12 05:53:28;;;;;;;19.33;13.30;;;;;;;20.30;75.39;100488.94;5069309;28;20087;-74
2023/09/12 05:55:55;;;;;;;16.77;13.55;;;;;;;20.35;74.88;100489.31;5067965;28;20067;-73
2023/09/12 05:58:22;;;;;;;21.23;14.65;;;;;;;20.38;74.56;100487.16;5082566;28;20105;-74
2023/09/12 06:00:50;;;;;;;26.77;13.68;;;;;;;20.45;73.86;100490.91;5059608;28;20052;-72
2023/09/12 06:03:18;;;;;;;25.30;14.23;;;;;;;20.52;73.21;100496.47;5068800;28;20056;-73
2023/09/12 06:05:46;;;;;;;20.00;13.35;;;;;;;20.59;73.16;100494.03;5064735;28;20097;-72
2023/09/12 06:08:13;;;;;;;22.20;14.05;;;;;;;20.66;72.37;100489.69;5054293;28;20093;-73
2023/09/12 06:10:40;;;;;;;25.50;13.55;;;;;;;20.75;72.16;100491.41;5067882;28;20498;-73
2023/09/12 06:13:08;;;;;;;21.15;14.02;;;;;;;20.82;71.07;100499.66;5067379;28;20077;-73
2023/09/12 06:15:40;;;;;;;18.90;13.80;;;;;;;20.90;71.12;100500.53;5051610;28;20067;-72
2023/09/12 06:18:08;;;;;;;26.65;13.85;;;;;;;21.03;70.70;100504.59;5054187;28;20066;-72
2023/09/12 06:20:36;;;;;;;34.00;16.13;;;;;;;21.13;69.76;100506.16;5066948;28;20105;-72
2023/09/12 06:23:03;;;;;;;19.08;13.43;;;;;;;21.24;69.83;100502.34;5066097;28;20059;-72
2023/09/12 06:25:30;;;;;;;27.27;13.65;;;;;;;21.28;69.72;100505.53;5050876;28;20055;-72
2023/09/12 06:27:59;;;;;;;25.50;14.13;;;;;;;21.39;68.74;100511.47;5049776;28;20055;-73
2023/09/12 06:30:26;;;;;;;23.67;14.63;;;;;;;21.49;67.67;100511.31;5087496;28;20094;-73
2023/09/12 06:32:53;;;;;;;25.33;13.52;;;;;;;21.54;67.62;100502.78;5085007;28;20135;-73
2023/09/12 06:35:22;;;;;;;18.88;13.00;;;;;;;21.60;66.51;100504.81;5052658;28;20055;-72
2023/09/12 06:37:49;;;;;;;18.48;13.07;;;;;;;21.71;66.30;100499.97;5053330;28;20079;-73
2023/09/12 06:40:17;;;;;;;19.88;11.65;;;;;;;21.84;66.19;100510.22;5053417;28;20117;-72
2023/09/12 06:42:44;;;;;;;19.45;12.65;;;;;;;21.89;66.03;100517.75;5052393;28;20510;-72
2023/09/12 06:45:11;;;;;;;24.75;13.30;;;;;;;21.76;63.39;100520.91;5052123;28;20067;-73
2023/09/12 06:47:39;;;;;;;25.17;12.90;;;;;;;21.85;63.49;100517.25;5049140;28;20043;-73
2023/09/12 06:50:06;;;;;;;19.85;12.48;;;;;;;22.04;63.71;100518.75;5086049;28;20105;-72
2023/09/12 06:52:40;;;;;;;19.92;11.65;;;;;;;22.22;63.06;100521.28;5065695;28;20072;-72
2023/09/12 06:55:07;;;;;;;19.23;11.80;;;;;;;;;;5051119;28;20731;-73
2023/09/12 06:57:34;;;;;;;17.02;10.60;;;;;;;22.53;61.50;100529.47;5048014;28;20059;-73
2023/09/12 07:00:06;;;;;;;18.15;10.93;;;;;;;22.65;61.54;100528.13;5053923;28;20159;-73
2023/09/12 07:02:34;;;;;;;29.83;12.00;;;;;;;22.76;60.09;100524.22;5086038;28;20083;-73
2023/09/12 07:05:03;;;;;;;22.13;11.05;;;;;;;22.89;59.26;100527.25;5070069;28;20471;-71
2023/09/12 07:07:31;;;;;;;24.23;11.00;;;;;;;22.91;58.35;100529.75;5086452;28;20469;-73
2023/09/12 07:09:59;;;;;;;24.40;10.57;;;;;;;22.89;58.77;100526.38;5066961;28;20063;-74
2023/09/12 07:12:46;;;;;;;23.70;12.02;;;;;;;22.93;58.53;100528.56;5069641;28;20506;-73
2023/09/12 07:15:14;;;;;;;19.75;10.52;;;;;;;23.15;57.56;100526.16;5084525;28;20168;-71
2023/09/12 07:17:41;;;;;;;19.65;9.90;;;;;;;23.32;57.81;100529.56;5054297;28;20502;-72
2023/09/12 07:20:11;;;;;;;24.83;11.00;;;;;;;23.48;56.61;100526.81;5055015;28;20072;-73
2023/09/12 07:22:40;;;;;;;20.55;9.63;;;;;;;23.72;56.38;100533.91;5051507;28;20056;-73
2023/09/12 07:25:09;;;;;;;21.50;10.57;;;;;;;23.91;56.25;100532.59;5053514;28;20032;-72
2023/09/12 07:27:36;;;;;;;15.75;9.13;;;;;;;24.07;55.89;100537.03;5053481;28;20961;-73
2023/09/12 07:30:05;;;;;;;21.85;10.05;;;;;;;24.21;55.33;100538.91;5067498;28;20085;-72
2023/09/12 07:32:33;;;;;;;19.05;9.50;;;;;;;24.37;54.91;100529.91;5067701;28;20076;-73
2023/09/12 07:35:01;;;;;;;27.25;9.57;;;;;;;24.40;53.92;100524.16;5052795;28;20054;-72
2023/09/12 07:37:28;;;;;;;19.67;9.15;;;;;;;24.59;54.00;100528.19;5052338;28;20056;-72
2023/09/12 07:39:55;;;;;;;18.83;10.00;;;;;;;24.75;54.00;100525.31;5069774;28;20143;-72
2023/09/12 07:42:24;;;;;;;14.98;8.77;;;;;;;24.92;53.13;100517.88;5067472;28;20146;-72
2023/09/12 07:44:51;;;;;;;17.63;7.35;;;;;;;25.10;52.24;100522.91;5067923;28;20066;-72
2023/09/12 07:47:19;;;;;;;31.10;8.63;;;;;;;25.08;51.34;100517.72;5051028;28;20139;-73
2023/09/12 07:49:53;;;;;;;21.05;8.27;;;;;;;25.10;51.67;100518.38;5050111;28;20075;-73
2023/09/12 07:52:20;;;;;;;18.42;6.72;;;;;;;25.25;51.27;100519.16;5067413;28;20076;-73
2023/09/12 07:54:52;;;;;;;17.98;7.40;;;;;;;25.40;51.44;100521.03;5068429;28;20091;-73
2023/09/12 07:57:19;;;;;;;24.48;7.95;;;;;;;25.55;51.18;100527.19;5051986;28;20068;-72
2023/09/12 07:59:47;;;;;;;26.08;8.85;;;;;;;25.27;50.91;100516.31;5064978;28;20162;-73
2023/09/12 08:02:14;;;;;;;17.75;7.90;;;;;;;25.51;50.43;100517.81;5068909;28;20078;-74
2023/09/12 08:04:42;;;;;;;25.15;8.60;;;;;;;25.73;49.92;100518.69;5087124;28;20541;-74
2023/09/12 08:07:09;;;;;;;18.73;8.52;;;;;;;25.97;49.87;100536.34;5059838;28;20074;-71
2023/09/12 08:09:53;;;;;;;27.17;7.38;;;;;;;25.86;50.04;100545.81;5065846;28;20187;-72
2023/09/12 08:12:22;;;;;;;37.35;8.40;;;;;;;25.94;49.60;100534.91;5068953;28;20495;-72
2023/09/12 08:14:53;;;;;;;13.02;6.13;;;;;;;26.03;49.68;100538.31;5050701;28;20135;-72
2023/09/12 08:17:22;;;;;;;19.88;6.97;;;;;;;26.16;48.93;100533.03;5045294;28;20048;-71
2023/09/12 08:19:49;;;;;;;22.40;6.63;;;;;;;26.31;48.90;100530.25;5086473;28;20047;-73
2023/09/12 08:22:17;;;;;;;26.42;6.75;;;;;;;26.46;48.67;100532.88;5057999;28;20098;-71
2023/09/12 08:24:44;;;;;;;27.30;8.18;;;;;;;26.40;48.19;100526.38;5065592;28;20055;-72
2023/09/12 08:27:12;;;;;;;22.77;6.65;;;;;;;26.51;48.86;100527.72;5068145;28;20391;-71
2023/09/12 08:29:41;;;;;;;26.63;7.07;;;;;;;26.63;47.89;100542.34;5082884;28;20040;-72
2023/09/12 08:32:08;;;;;;;23.52;7.13;;;;;;;26.75;47.98;100532.66;5068430;28;20059;-72
2023/09/12 08:34:35;;;;;;;19.92;7.70;;;;;;;27.02;46.73;100530.94;5068237;28;20097;-72
2023/09/12 08:37:03;;;;;;;23.98;7.95;;;;;;;26.91;45.88;100530.66;5052939;28;20418;-71
2023/09/12 08:39:42;;;;;;;20.05;6.38;;;;;;;27.11;46.38;100525.38;5084220;28;20075;-72
2023/09/12 08:42:14;;;;;;;18.20;6.28;;;;;;;27.01;44.98;100523.03;5087021;28;20056;-72
2023/09/12 08:44:42;;;;;;;12.50;6.50;;;;;;;27.12;45.31;100530.59;5077757;28;20048;-72
2023/09/12 08:47:11;;;;;;;21.80;5.90;;;;;;;27.23;44.79;100534.59;5034272;28;20467;-73
2023/09/12 08:49:38;;;;;;;19.27;6.93;;;;;;;27.20;44.81;100537.72;5055459;28;20067;-73
2023/09/12 08:52:06;;;;;;;17.23;6.65;;;;;;;27.50;44.64;100538.22;5072889;28;20128;-72
2023/09/12 08:54:33;;;;;;;25.50;6.85;;;;;;;27.60;44.63;100538.66;5043720;28;20068;-72
2023/09/12 08:57:05;;;;;;;15.35;6.40;;;;;;;27.81;44.67;100540.41;5057788;28;20066;-73
2023/09/12 08:59:33;;;;;;;13.13;5.88;;;;;;;28.05;43.50;100540.88;5069566;28;20052;-71
2023/09/12 09:02:01;;;;;;;17.15;6.65;;;;;;;28.13;43.34;100546.09;5086556;28;20051;-70
2023/09/12 09:04:30;;;;;;;14.35;5.88;;;;;;;28.31;42.80;100548.16;5055865;28;20051;-71
2023/09/12 09:06:58;;;;;;;13.35;5.40;;;;;;;28.29;42.38;100542.97;5071532;28;20044;-72
2023/09/12 09:09:28;;;;;;;17.45;6.28;;;;;;;28.22;42.91;100561.91;5054064;28;20117;-72
2023/09/12 09:11:55;;;;;;;22.85;7.28;;;;;;;27.90;43.21;100562.72;5070646;28;20132;-72
2023/09/12 09:14:23;;;;;;;12.90;5.97;;;;;;;28.03;43.50;100554.59;5048729;28;20056;-72
2023/09/12 09:16:50;;;;;;;13.35;5.47;;;;;;;28.40;43.06;100555.06;5069602;28;20056;-72
2023/09/12 09:19:19;;;;;;;20.13;5.82;;;;;;;28.43;42.49;100549.25;5056023;28;20653;-72
2023/09/12 09:21:47;;;;;;;18.50;6.07;;;;;;;28.18;43.18;100552.53;5088268;28;20096;-72
2023/09/12 09:24:17;;;;;;;23.95;6.75;;;;;;;28.33;43.49;100556.94;5065202;28;20072;-71
2023/09/12 09:26:53;;;;;;;16.52;6.22;;;;;;;28.36;43.65;100564.66;5089507;28;20532;-70
2023/09/12 09:29:21;;;;;;;12.43;5.65;;;;;;;28.47;43.95;100572.16;5065111;28;20052;-73
2023/09/12 09:31:50;;;;;;;23.90;6.60;;;;;;;28.60;44.06;100571.31;5052909;28;20455;-72
2023/09/12 09:34:19;;;;;;;21.40;7.25;;;;;;;28.61;43.94;100572.97;5053402;28;20052;-72
2023/09/12 09:36:48;;;;;;;20.90;6.45;;;;;;;28.17;45.50;100577.94;5055407;28;20097;-71
2023/09/12 09:39:22;;;;;;;22.90;7.15;;;;;;;28.14;46.16;100580.22;5056921;28;20095;-73
2023/09/12 09:41:51;;;;;;;15.40;7.05;;;;;;;28.07;47.20;100580.22;5048136;28;20048;-73
2023/09/12 09:44:18;;;;;;;19.90;6.78;;;;;;;28.05;47.56;100586.88;5050473;28;20056;-72
2023/09/12 09:46:46;;;;;;;13.50;5.85;;;;;;;28.20;47.37;100577.53;5053140;28;20143;-73
2023/09/12 09:49:19;;;;;;;31.80;7.32;;;;;;;28.24;47.38;100578.78;5071300;28;20086;-71
2023/09/12 09:51:47;;;;;;;18.88;6.68;;;;;;;28.19;48.08;100573.16;5071839;28;20305;-73
2023/09/12 09:54:15;;;;;;;15.40;6.65;;;;;;;28.47;48.43;100578.41;5069684;28;20056;-71
2023/09/12 09:56:50;;;;;;;18.67;7.93;;;;;;;28.86;46.60;100587.50;5050095;28;20049;-72
2023/09/12 09:59:21;;;;;;;19.75;7.93;;;;;;;28.62;46.85;100580.88;5062672;28;20059;-73
2023/09/12 10:01:51;;;;;;;20.10;8.18;;;;;;;28.44;47.83;100578.81;5049373;28;20085;-72
2023/09/12 10:04:19;;;;;;;17.02;8.20;;;;;;;28.66;47.48;100586.72;5054296;28;20083;-72
2023/09/12 10:06:47;;;;;;;20.90;6.93;;;;;;;28.63;47.75;100582.56;5070906;28;20070;-73
2023/09/12 10:09:16;;;;;;;16.63;8.02;;;;;;;28.72;48.07;100581.28;5064260;28;20056;-72
2023/09/12 10:11:46;;;;;;;17.20;7.57;;;;;;;28.91;47.42;100576.91;5030022;28;20075;-71
2023/09/12 10:14:15;;;;;;;15.00;7.60;;;;;;;28.81;47.94;100572.94;5068050;28;20052;-71
2023/09/12 10:16:48;;;;;;;17.50;7.95;;;;;;;28.37;48.51;100572.59;5064629;28;20160;-72
2023/09/12 10:19:22;;;;;;;12.23;7.50;;;;;;;28.56;49.49;100564.66;5054126;28;20502;-73
2023/09/12 10:21:53;;;;;;;19.70;8.57;;;;;;;28.93;47.96;100555.84;5048448;28;20453;-72
2023/09/12 10:24:21;;;;;;;23.60;9.43;;;;;;;28.96;47.04;100552.75;5065151;28;20058;-73
2023/09/12 10:26:50;;;;;;;20.75;8.20;;;;;;;28.89;47.60;100549.16;5038134;28;20606;-73
2023/09/12 10:29:17;;;;;;;22.08;7.90;;;;;;;29.33;46.94;100552.19;5049954;28;20060;-71
2023/09/12 10:31:45;;;;;;;23.08;7.70;;;;;;;29.64;46.67;100546.03;5089424;28;20375;-72
2023/09/12 10:34:14;;;;;;;23.63;8.57;;;;;;;29.98;45.75;100540.13;5071676;28;20044;-72
2023/09/12 10:36:45;;;;;;;14.88;7.45;;;;;;;30.24;44.92;100536.44;5051032;28;20047;-72
2023/09/12 10:39:14;;;;;;;23.17;7.78;;;;;;;30.51;44.77;100538.91;5057029;28;20063;-72
2023/09/12 10:41:42;;;;;;;24.13;8.77;;;;;;;30.72;43.98;100533.09;5048575;28;20514;-72
2023/09/12 10:44:12;;;;;;;18.88;7.15;;;;;;;30.89;43.89;100530.63;5047793;28;20445;-79
2023/09/12 10:46:41;;;;;;;26.92;6.90;;;;;;;31.11;43.05;100543.72;5031295;28;20495;-71
2023/09/12 10:49:09;;;;;;;21.60;7.72;;;;;;;31.29;43.06;100537.47;5082021;28;20547;-71
2023/09/12 10:51:40;;;;;;;16.42;7.85;;;;;;;31.48;42.36;100539.13;5065212;28;20131;-70
2023/09/12 10:54:12;;;;;;;15.38;6.35;;;;;;;31.62;42.19;100537.06;5050009;28;20044;-70
2023/09/12 10:56:40;;;;;;;20.45;7.60;;;;;;;31.62;41.59;100543.31;5074502;28;20040;-71
2023/09/12 10:59:10;;;;;;;16.95;7.50;;;;;;;31.71;41.41;100536.50;5060778;28;20044;-69
2023/09/12 11:01:39;;;;;;;18.73;6.75;;;;;;;31.73;41.26;100542.50;5033680;28;20055;-71
2023/09/12 11:04:30;;;;;;;22.20;7.78;;;;;;;31.78;41.75;100531.75;5068758;28;20139;-71
2023/09/12 11:06:58;;;;;;;27.00;7.57;;;;;;;32.00;40.94;100529.38;5081658;28;20117;-71
2023/09/12 11:09:27;;;;;;;18.60;7.57;;;;;;;32.06;40.40;100527.59;5062049;28;20116;-69
2023/09/12 11:11:59;;;;;;;18.40;6.43;;;;;;;31.89;39.92;100532.91;5068730;28;20048;-71
2023/09/12 11:14:26;;;;;;;16.13;6.25;;;;;;;31.81;39.91;100530.47;5044582;28;20051;-69
2023/09/12 11:17:10;;;;;;;21.63;7.07;;;;;;;31.92;40.92;100539.75;5043286;28;20533;-71
2023/09/12 11:19:51;;;;;;;18.23;8.10;;;;;;;32.36;40.49;100532.13;5048430;28;20137;-71